createdAt,value
2022-12-11T00:01:42.821Z,35.07
2022-12-11T00:04:09.329Z,37.63
2022-12-11T00:06:36.029Z,33.53
2022-12-11T00:09:02.591Z,34.83
2022-12-11T00:11:29.090Z,31.07
2022-12-11T00:13:55.633Z,30.90
2022-12-11T00:16:26.748Z,31.17
2022-12-11T00:18:53.823Z,30.77
2022-12-11T00:21:20.326Z,31.33
2022-12-11T00:23:46.776Z,32.10
2022-12-11T00:26:15.538Z,32.70
2022-12-11T00:28:42.889Z,31.83
2022-12-11T00:31:13.316Z,34.37
2022-12-11T00:33:39.791Z,31.57
2022-12-11T00:36:23.018Z,31.03
2022-12-11T00:38:50.269Z,34.80
2022-12-11T00:41:17.569Z,34.73
2022-12-11T00:43:44.125Z,35.60
2022-12-11T00:46:11.010Z,32.53
2022-12-11T00:48:37.759Z,35.30
2022-12-11T00:51:04.725Z,36.83
2022-12-11T00:53:31.317Z,34.50
2022-12-11T00:55:57.910Z,36.77
2022-12-11T00:58:24.664Z,34.47
2022-12-11T01:00:53.246Z,36.50
2022-12-11T01:03:19.765Z,32.43
2022-12-11T01:05:54.083Z,33.53
2022-12-11T01:08:20.991Z,35.00
2022-12-11T01:10:47.616Z,32.03
2022-12-11T01:13:14.192Z,34.43
2022-12-11T01:15:44.006Z,34.67
2022-12-11T01:18:12.348Z,32.00
2022-12-11T01:20:40.987Z,33.83
2022-12-11T01:23:07.406Z,32.20
2022-12-11T01:25:35.929Z,33.23
2022-12-11T01:28:02.384Z,33.47
2022-12-11T01:30:28.861Z,32.63
2022-12-11T01:32:55.454Z,32.10
2022-12-11T01:35:22.151Z,32.57
2022-12-11T01:37:49.032Z,31.57
2022-12-11T01:40:18.940Z,32.77
2022-12-11T01:42:45.855Z,33.60
2022-12-11T01:45:27.076Z,33.30
2022-12-11T01:48:16.052Z,29.60
2022-12-11T01:50:48.998Z,30.83
2022-12-11T01:53:21.040Z,31.17
2022-12-11T01:55:49.420Z,32.43
2022-12-11T01:58:16.873Z,31.77
2022-12-11T02:00:43.266Z,32.37
2022-12-11T02:03:09.874Z,32.17
2022-12-11T02:05:36.915Z,30.60
2022-12-11T02:08:04.463Z,28.97
2022-12-11T02:10:56.389Z,30.93
2022-12-11T02:13:44.522Z,28.67
2022-12-11T02:16:21.592Z,29.27
2022-12-11T02:19:00.725Z,32.87
2022-12-11T02:21:38.439Z,29.27
2022-12-11T02:24:22.901Z,31.27
2022-12-11T02:26:57.500Z,29.07
2022-12-11T02:29:43.919Z,28.30
2022-12-11T02:32:16.813Z,30.93
2022-12-11T02:34:53.310Z,29.33
2022-12-11T02:37:23.331Z,30.53
2022-12-11T02:39:54.194Z,28.40
2022-12-11T02:42:23.370Z,30.00
2022-12-11T02:44:51.732Z,29.43
2022-12-11T02:47:19.917Z,28.63
2022-12-11T02:49:50.192Z,29.77
2022-12-11T02:52:20.290Z,27.17
2022-12-11T02:54:48.332Z,28.77
2022-12-11T02:57:20.776Z,28.63
2022-12-11T02:59:47.270Z,28.97
2022-12-11T03:02:16.971Z,28.93
2022-12-11T03:04:44.637Z,28.30
2022-12-11T03:07:15.125Z,27.53
2022-12-11T03:09:47.044Z,26.83
2022-12-11T03:12:20.531Z,27.80
2022-12-11T03:14:48.904Z,28.87
2022-12-11T03:17:20.148Z,26.20
2022-12-11T03:19:50.453Z,28.00
2022-12-11T03:22:22.701Z,26.53
2022-12-11T03:25:01.001Z,25.80
2022-12-11T03:27:33.036Z,25.10
2022-12-11T03:30:04.536Z,26.57
2022-12-11T03:32:46.305Z,25.50
2022-12-11T03:35:27.586Z,26.40
2022-12-11T03:37:56.698Z,26.83
2022-12-11T03:40:25.764Z,27.70
2022-12-11T03:42:56.330Z,25.97
2022-12-11T03:45:25.392Z,27.30
2022-12-11T03:47:55.002Z,27.03
2022-12-11T03:50:24.091Z,28.30
2022-12-11T03:52:51.041Z,28.77
2022-12-11T03:55:20.937Z,27.93
2022-12-11T03:57:47.518Z,28.23
2022-12-11T04:00:17.511Z,29.80
2022-12-11T04:02:45.096Z,27.50
2022-12-11T04:05:12.337Z,29.17
2022-12-11T04:07:39.068Z,29.40
2022-12-11T04:10:07.113Z,29.97
2022-12-11T04:12:33.522Z,27.93
2022-12-11T04:15:02.766Z,28.40
2022-12-11T04:17:53.330Z,28.87
2022-12-11T04:20:39.667Z,28.40
2022-12-11T04:23:33.539Z,28.00
2022-12-11T04:26:06.169Z,27.30
2022-12-11T04:28:32.709Z,31.30
2022-12-11T04:30:59.251Z,29.80
2022-12-11T04:33:25.895Z,28.70
2022-12-11T04:35:52.338Z,28.63
2022-12-11T04:38:18.825Z,30.73
2022-12-11T04:40:45.313Z,29.70
2022-12-11T04:43:11.743Z,30.03
2022-12-11T04:45:38.202Z,31.27
2022-12-11T04:48:04.848Z,29.03
2022-12-11T04:50:31.302Z,30.20
2022-12-11T04:52:58.059Z,28.03
2022-12-11T04:55:24.526Z,28.20
2022-12-11T04:57:50.982Z,27.50
2022-12-11T05:00:17.517Z,28.10
2022-12-11T05:02:44.193Z,29.13
2022-12-11T05:05:11.690Z,33.07
2022-12-11T05:07:39.762Z,32.13
2022-12-11T05:10:06.861Z,28.73
2022-12-11T05:12:33.620Z,28.83
2022-12-11T05:15:00.145Z,28.83
2022-12-11T05:17:26.729Z,29.70
2022-12-11T05:19:53.251Z,27.80
2022-12-11T05:22:19.664Z,27.50
2022-12-11T05:24:46.234Z,28.70
2022-12-11T05:27:12.724Z,29.43
2022-12-11T05:29:39.203Z,28.37
2022-12-11T05:32:05.879Z,27.80
2022-12-11T05:34:32.900Z,27.67
2022-12-11T05:36:59.475Z,25.90
2022-12-11T05:39:25.907Z,27.03
2022-12-11T05:41:52.341Z,24.83
2022-12-11T05:44:18.795Z,25.40
2022-12-11T05:46:45.266Z,24.30
2022-12-11T05:49:11.870Z,24.83
2022-12-11T05:51:39.675Z,26.20
2022-12-11T05:54:06.303Z,25.07
2022-12-11T05:56:34.807Z,25.67
2022-12-11T05:59:02.459Z,24.50
2022-12-11T06:01:36.181Z,24.33
2022-12-11T06:04:05.043Z,24.33
2022-12-11T06:06:32.467Z,24.63
2022-12-11T06:09:00.163Z,25.30
2022-12-11T06:11:29.157Z,24.93
2022-12-11T06:13:55.808Z,24.73
2022-12-11T06:16:23.137Z,26.07
2022-12-11T06:18:49.578Z,25.80
2022-12-11T06:21:24.730Z,25.13
2022-12-11T06:23:54.868Z,25.13
2022-12-11T06:26:21.897Z,26.60
2022-12-11T06:28:48.937Z,25.57
2022-12-11T06:31:16.043Z,23.43
2022-12-11T06:33:44.441Z,23.73
2022-12-11T06:36:22.472Z,24.90
2022-12-11T06:38:49.064Z,25.70
2022-12-11T06:41:16.067Z,25.80
2022-12-11T06:43:42.968Z,25.17
2022-12-11T06:46:12.912Z,24.60
2022-12-11T06:48:40.150Z,28.10
2022-12-11T06:51:18.164Z,27.27
2022-12-11T06:53:44.937Z,25.73
2022-12-11T06:56:15.652Z,27.37
2022-12-11T06:58:44.026Z,26.13
2022-12-11T07:01:25.996Z,26.70
2022-12-11T07:03:54.268Z,27.10
2022-12-11T07:06:20.861Z,27.50
2022-12-11T07:08:47.658Z,27.60
2022-12-11T07:11:16.275Z,27.93
2022-12-11T07:13:42.844Z,26.80
2022-12-11T07:16:11.335Z,28.67
2022-12-11T07:18:42.899Z,29.47
2022-12-11T07:21:11.735Z,27.97
2022-12-11T07:23:38.418Z,28.93
2022-12-11T07:26:13.505Z,29.80
2022-12-11T07:28:40.945Z,28.33
2022-12-11T07:31:09.646Z,28.77
2022-12-11T07:33:36.428Z,30.47
2022-12-11T07:36:04.476Z,26.00
2022-12-11T07:38:31.002Z,30.07
2022-12-11T07:41:01.697Z,28.27
2022-12-11T07:43:28.628Z,26.80
2022-12-11T07:45:55.175Z,28.10
2022-12-11T07:48:21.686Z,27.47
2022-12-11T07:50:48.200Z,26.30
2022-12-11T07:53:14.840Z,27.97
2022-12-11T07:55:41.607Z,25.97
2022-12-11T07:58:08.059Z,26.10
2022-12-11T08:00:34.531Z,27.47
2022-12-11T08:03:01.134Z,24.30
2022-12-11T08:05:28.945Z,23.17
2022-12-11T08:07:55.936Z,27.30
2022-12-11T08:10:22.948Z,26.83
2022-12-11T08:12:49.395Z,26.63
2022-12-11T08:15:15.871Z,26.47
2022-12-11T08:17:42.312Z,27.00
2022-12-11T08:20:09.385Z,26.23
2022-12-11T08:22:36.198Z,25.47
2022-12-11T08:25:02.762Z,24.57
2022-12-11T08:27:29.555Z,23.43
2022-12-11T08:29:56.204Z,26.13
2022-12-11T08:32:22.724Z,25.00
2022-12-11T08:34:51.327Z,24.90
2022-12-11T08:37:17.756Z,25.03
2022-12-11T08:39:45.022Z,23.37
2022-12-11T08:42:11.482Z,24.43
2022-12-11T08:44:38.069Z,23.30
2022-12-11T08:47:04.640Z,24.87
2022-12-11T08:49:34.383Z,24.97
2022-12-11T08:52:02.587Z,23.00
2022-12-11T08:54:29.044Z,26.17
2022-12-11T08:56:58.155Z,22.73
2022-12-11T08:59:25.696Z,24.73
2022-12-11T09:01:52.496Z,23.73
2022-12-11T09:04:18.951Z,24.53
2022-12-11T09:06:45.368Z,24.43
2022-12-11T09:09:12.594Z,24.33
2022-12-11T09:11:39.515Z,25.47
2022-12-11T09:14:07.865Z,24.30
2022-12-11T09:16:37.858Z,23.23
2022-12-11T09:19:04.512Z,23.10
2022-12-11T09:21:31.021Z,21.50
2022-12-11T09:24:00.092Z,22.33
2022-12-11T09:26:28.305Z,22.30
2022-12-11T09:28:55.091Z,21.30
2022-12-11T09:31:33.179Z,21.80
2022-12-11T09:34:03.521Z,21.77
2022-12-11T09:36:30.650Z,21.70
2022-12-11T09:39:01.019Z,21.90
2022-12-11T09:41:58.120Z,22.17
2022-12-11T09:44:41.568Z,22.10
2022-12-11T09:47:36.585Z,21.37
2022-12-11T09:50:09.241Z,22.03
2022-12-11T09:52:44.112Z,23.53
2022-12-11T09:55:17.460Z,23.60
2022-12-11T09:58:08.725Z,23.60
2022-12-11T10:00:49.131Z,24.60
2022-12-11T10:03:29.999Z,23.50
2022-12-11T10:06:17.724Z,22.97
2022-12-11T10:09:02.452Z,24.33
2022-12-11T10:11:40.045Z,24.20
2022-12-11T10:14:06.515Z,23.40
2022-12-11T10:16:44.306Z,24.30
2022-12-11T10:19:32.014Z,25.53
2022-12-11T10:22:01.001Z,23.50
2022-12-11T10:27:34.726Z,27.47
2022-12-11T10:30:21.166Z,26.97
2022-12-11T10:32:56.573Z,23.70
2022-12-11T10:35:44.780Z,24.60
2022-12-11T10:38:20.379Z,24.73
2022-12-11T10:40:50.954Z,24.87
2022-12-11T10:43:17.785Z,24.63
2022-12-11T10:45:54.839Z,24.27
2022-12-11T10:48:22.239Z,23.40
2022-12-11T10:51:18.176Z,27.93
2022-12-11T10:53:50.847Z,25.20
2022-12-11T10:56:26.082Z,24.20
2022-12-11T10:58:52.718Z,22.57
2022-12-11T11:01:23.065Z,24.40
2022-12-11T11:04:06.586Z,22.87
2022-12-11T11:06:33.834Z,24.97
2022-12-11T11:09:01.721Z,25.40
2022-12-11T11:11:39.402Z,24.30
2022-12-11T11:14:12.229Z,25.43
2022-12-11T11:16:40.441Z,23.20
2022-12-11T11:19:07.392Z,25.40
2022-12-11T11:21:35.851Z,25.13
2022-12-11T11:24:03.609Z,26.00
2022-12-11T11:26:56.579Z,24.17
2022-12-11T11:29:31.941Z,26.87
2022-12-11T11:32:20.629Z,26.23
2022-12-11T11:34:47.064Z,25.23
2022-12-11T11:37:28.674Z,25.73
2022-12-11T11:40:01.370Z,24.40
2022-12-11T11:42:44.803Z,26.10
2022-12-11T11:45:38.589Z,25.53
2022-12-11T11:48:17.281Z,25.23
2022-12-11T11:50:46.338Z,26.00
2022-12-11T11:53:20.818Z,25.40
2022-12-11T11:56:02.996Z,26.27
2022-12-11T11:58:47.641Z,26.00
2022-12-11T12:01:17.603Z,24.60
2022-12-11T12:03:45.532Z,25.20
2022-12-11T12:06:50.533Z,25.57
2022-12-11T12:09:23.553Z,26.77
2022-12-11T12:12:10.940Z,24.60
2022-12-11T12:14:52.958Z,25.80
2022-12-11T12:17:27.605Z,25.87
2022-12-11T12:20:03.099Z,25.13
2022-12-11T12:22:46.395Z,28.50
2022-12-11T12:25:28.978Z,25.90
2022-12-11T12:28:03.350Z,26.90
2022-12-11T12:30:45.345Z,27.30
2022-12-11T12:33:30.138Z,28.00
2022-12-11T12:36:07.231Z,26.37
2022-12-11T12:38:46.464Z,25.70
2022-12-11T12:41:22.498Z,26.57
2022-12-11T12:44:08.313Z,27.30
2022-12-11T12:47:02.440Z,27.23
2022-12-11T12:49:49.005Z,26.93
2022-12-11T12:52:36.746Z,28.70
2022-12-11T12:55:14.293Z,26.20
2022-12-11T12:57:50.793Z,25.47
2022-12-11T13:00:38.778Z,28.37
2022-12-11T13:03:29.351Z,27.30
2022-12-11T13:05:58.903Z,26.23
2022-12-11T13:08:28.903Z,26.30
2022-12-11T13:11:03.445Z,26.77
2022-12-11T13:13:39.614Z,27.53
2022-12-11T13:16:27.231Z,26.90
2022-12-11T13:18:54.520Z,25.47
2022-12-11T13:21:29.434Z,27.60
2022-12-11T13:24:27.305Z,27.23
2022-12-11T13:26:54.122Z,27.30
2022-12-11T13:29:38.569Z,28.57
2022-12-11T13:32:08.062Z,27.03
2022-12-11T13:34:37.604Z,26.00
2022-12-11T13:37:05.639Z,27.10
2022-12-11T13:39:37.486Z,27.50
2022-12-11T13:42:20.654Z,25.50
2022-12-11T13:44:48.909Z,25.87
2022-12-11T13:47:18.559Z,28.97
2022-12-11T13:49:58.465Z,27.07
2022-12-11T13:52:27.632Z,27.60
2022-12-11T13:54:56.029Z,28.50
2022-12-11T13:57:30.977Z,27.30
2022-12-11T13:59:59.371Z,25.43
2022-12-11T14:02:42.434Z,26.73
2022-12-11T14:05:12.618Z,26.07
2022-12-11T14:07:53.462Z,33.60
2022-12-11T14:10:23.611Z,27.13
2022-12-11T14:12:59.224Z,27.43
2022-12-11T14:15:28.097Z,28.17
2022-12-11T14:17:55.717Z,25.73
2022-12-11T14:20:28.804Z,25.37
2022-12-11T14:23:13.725Z,27.30
2022-12-11T14:25:40.243Z,26.87
2022-12-11T14:28:16.857Z,28.10
2022-12-11T14:30:49.499Z,26.77
2022-12-11T14:33:17.765Z,26.27
2022-12-11T14:35:45.189Z,26.70
2022-12-11T14:38:18.752Z,27.10
2022-12-11T14:40:48.801Z,27.60
2022-12-11T14:43:23.514Z,25.93
2022-12-11T14:45:57.796Z,25.80
2022-12-11T14:48:30.566Z,27.40
2022-12-11T14:51:01.627Z,25.43
2022-12-11T14:53:42.342Z,27.67
2022-12-11T14:56:18.699Z,26.50
2022-12-11T14:58:55.174Z,27.97
2022-12-11T15:01:28.169Z,25.57
2022-12-11T15:04:26.742Z,26.10
2022-12-11T15:06:53.283Z,26.13
2022-12-11T15:09:38.289Z,27.63
2022-12-11T15:12:13.648Z,26.37
2022-12-11T15:14:47.199Z,29.47
2022-12-11T15:17:15.071Z,27.23
2022-12-11T15:19:47.231Z,28.53
2022-12-11T15:22:16.451Z,26.57
2022-12-11T15:24:46.385Z,27.20
2022-12-11T15:27:24.902Z,29.40
2022-12-11T15:29:51.619Z,28.07
2022-12-11T15:32:19.420Z,27.90
2022-12-11T15:35:22.717Z,26.67
2022-12-11T15:37:54.421Z,28.40
2022-12-11T15:40:21.208Z,28.60
2022-12-11T15:42:48.529Z,27.97
2022-12-11T15:45:20.465Z,27.87
2022-12-11T15:47:48.248Z,27.70
2022-12-11T15:50:23.711Z,28.37
2022-12-11T15:52:51.840Z,27.40
2022-12-11T15:55:19.531Z,29.17
2022-12-11T15:58:01.909Z,27.80
2022-12-11T16:00:28.529Z,29.57
2022-12-11T16:02:57.029Z,29.70
2022-12-11T16:05:23.697Z,38.53
2022-12-11T16:07:54.807Z,33.63
2022-12-11T16:10:22.084Z,34.97
2022-12-11T16:12:48.705Z,31.23
2022-12-11T16:15:21.423Z,29.13
2022-12-11T16:17:49.771Z,30.87
2022-12-11T16:20:16.285Z,30.83
2022-12-11T16:22:42.765Z,30.37
2022-12-11T16:25:09.481Z,28.73
2022-12-11T16:27:36.264Z,28.93
2022-12-11T16:30:03.620Z,29.30
2022-12-11T16:32:30.062Z,28.00
2022-12-11T16:35:00.702Z,30.73
2022-12-11T16:37:27.342Z,27.50
2022-12-11T16:39:53.808Z,28.10
2022-12-11T16:42:20.273Z,27.90
2022-12-11T16:44:46.919Z,26.37
2022-12-11T16:47:13.300Z,28.37
2022-12-11T16:49:39.813Z,29.20
2022-12-11T16:52:06.256Z,28.70
2022-12-11T16:54:32.682Z,29.67
2022-12-11T16:56:59.223Z,30.73
2022-12-11T16:59:25.686Z,32.27
2022-12-11T17:01:52.334Z,29.33
2022-12-11T17:04:18.951Z,30.30
2022-12-11T17:06:46.293Z,30.63
2022-12-11T17:09:12.788Z,31.10
2022-12-11T17:11:39.203Z,33.20
2022-12-11T17:14:05.816Z,30.27
2022-12-11T17:16:33.913Z,30.50
2022-12-11T17:19:00.788Z,29.03
2022-12-11T17:21:27.326Z,29.23
2022-12-11T17:23:53.842Z,33.23
2022-12-11T17:26:20.403Z,31.10
2022-12-11T17:28:46.978Z,30.80
2022-12-11T17:31:16.495Z,29.30
2022-12-11T17:33:44.225Z,28.73
2022-12-11T17:36:13.552Z,31.37
2022-12-11T17:38:40.233Z,29.70
2022-12-11T17:41:07.981Z,29.87
2022-12-11T17:43:34.550Z,29.03
2022-12-11T17:46:01.039Z,28.47
2022-12-11T17:48:27.985Z,27.90
2022-12-11T17:50:54.595Z,27.93
2022-12-11T17:53:22.060Z,28.13
2022-12-11T17:55:49.738Z,27.03
2022-12-11T17:58:18.897Z,28.43
2022-12-11T18:00:47.154Z,27.63
2022-12-11T18:03:14.174Z,27.00
2022-12-11T18:05:42.735Z,27.50
2022-12-11T18:08:13.080Z,27.83
2022-12-11T18:10:39.884Z,28.10
2022-12-11T18:13:06.394Z,30.77
2022-12-11T18:15:33.225Z,29.53
2022-12-11T18:17:59.765Z,28.13
2022-12-11T18:20:27.362Z,29.37
2022-12-11T18:22:55.353Z,31.23
2022-12-11T18:25:21.894Z,26.57
2022-12-11T18:27:48.566Z,26.27
2022-12-11T18:30:15.235Z,26.67
2022-12-11T18:32:42.936Z,25.63
2022-12-11T18:35:11.037Z,27.53
2022-12-11T18:37:38.365Z,29.60
2022-12-11T18:40:06.018Z,26.53
2022-12-11T18:42:33.711Z,25.10
2022-12-11T18:45:00.937Z,27.13
2022-12-11T18:47:27.748Z,27.00
2022-12-11T18:49:54.343Z,29.53
2022-12-11T18:52:20.851Z,28.10
2022-12-11T18:54:47.511Z,27.43
2022-12-11T18:57:13.941Z,30.97
2022-12-11T18:59:40.408Z,24.80
2022-12-11T19:02:07.356Z,28.60
2022-12-11T19:04:35.906Z,27.30
2022-12-11T19:07:02.421Z,27.87
2022-12-11T19:09:31.614Z,26.90
2022-12-11T19:12:00.401Z,30.03
2022-12-11T19:14:26.937Z,28.07
2022-12-11T19:16:53.415Z,28.80
2022-12-11T19:19:21.437Z,33.03
2022-12-11T19:21:49.260Z,33.50
2022-12-11T19:24:21.054Z,32.30
2022-12-11T19:26:47.917Z,40.20
2022-12-11T19:29:34.651Z,47.20
2022-12-11T19:32:04.759Z,38.50
2022-12-11T19:34:31.309Z,43.43
2022-12-11T19:36:58.010Z,54.63
2022-12-11T19:39:25.067Z,33.30
2022-12-11T19:41:51.475Z,33.97
2022-12-11T19:44:18.121Z,28.50
2022-12-11T19:46:44.723Z,29.13
2022-12-11T19:49:12.140Z,27.10
2022-12-11T19:51:40.705Z,25.90
2022-12-11T19:54:09.482Z,29.47
2022-12-11T19:56:36.127Z,27.83
2022-12-11T19:59:08.552Z,27.17
2022-12-11T20:01:37.509Z,26.90
2022-12-11T20:04:07.724Z,25.30
2022-12-11T20:06:36.918Z,25.83
2022-12-11T20:09:05.350Z,24.20
2022-12-11T20:11:33.069Z,26.20
2022-12-11T20:14:00.339Z,24.00
2022-12-11T20:16:46.372Z,26.00
2022-12-11T20:19:13.784Z,26.83
2022-12-11T20:21:40.582Z,25.90
2022-12-11T20:24:07.579Z,26.13
2022-12-11T20:26:36.473Z,26.77
2022-12-11T20:29:07.272Z,28.57
2022-12-11T20:31:35.258Z,25.73
2022-12-11T20:34:01.798Z,29.40
2022-12-11T20:36:28.337Z,23.87
2022-12-11T20:38:54.850Z,26.60
2022-12-11T20:41:23.711Z,26.27
2022-12-11T20:43:53.031Z,25.83
2022-12-11T20:46:20.968Z,27.03
2022-12-11T20:48:48.380Z,26.50
2022-12-11T20:51:22.434Z,24.70
2022-12-11T20:53:57.502Z,25.13
2022-12-11T20:56:25.919Z,23.93
2022-12-11T20:58:52.473Z,23.50
2022-12-11T21:01:22.622Z,24.73
2022-12-11T21:03:49.907Z,25.27
2022-12-11T21:06:31.155Z,26.47
2022-12-11T21:09:00.384Z,26.00
2022-12-11T21:11:27.686Z,25.70
2022-12-11T21:13:54.502Z,25.27
2022-12-11T21:16:22.160Z,27.73
2022-12-11T21:18:48.987Z,26.80
2022-12-11T21:21:16.426Z,26.50
2022-12-11T21:23:42.997Z,25.90
2022-12-11T21:26:09.597Z,25.47
2022-12-11T21:28:36.171Z,25.47
2022-12-11T21:31:06.978Z,25.00
2022-12-11T21:33:33.995Z,25.70
2022-12-11T21:36:00.633Z,25.67
2022-12-11T21:38:28.177Z,26.43
2022-12-11T21:40:55.817Z,24.93
2022-12-11T21:43:23.393Z,25.63
2022-12-11T21:46:06.488Z,24.43
2022-12-11T21:48:33.382Z,24.63
2022-12-11T21:51:12.474Z,23.67
2022-12-11T21:53:39.040Z,23.87
2022-12-11T21:56:13.695Z,24.37
2022-12-11T21:58:42.127Z,24.57
2022-12-11T22:01:22.318Z,24.93
2022-12-11T22:03:49.928Z,32.77
2022-12-11T22:06:16.748Z,27.33
2022-12-11T22:08:43.320Z,25.20
2022-12-11T22:11:17.952Z,27.07
2022-12-11T22:13:44.435Z,24.33
2022-12-11T22:16:11.359Z,25.17
2022-12-11T22:18:37.975Z,23.27
2022-12-11T22:21:05.241Z,22.40
2022-12-11T22:23:31.764Z,23.33
2022-12-11T22:25:58.259Z,27.13
2022-12-11T22:28:24.663Z,25.80
2022-12-11T22:30:51.265Z,23.77
2022-12-11T22:33:17.726Z,23.73
2022-12-11T22:35:44.216Z,24.30
2022-12-11T22:38:10.621Z,23.30
2022-12-11T22:40:41.135Z,22.53
2022-12-11T22:43:07.736Z,23.83
2022-12-11T22:45:39.023Z,23.47
2022-12-11T22:48:06.615Z,23.87
2022-12-11T22:50:33.719Z,25.57
2022-12-11T22:53:00.273Z,25.93
2022-12-11T22:55:26.745Z,21.13
2022-12-11T22:57:53.433Z,25.10
2022-12-11T23:00:20.013Z,22.07
2022-12-11T23:02:46.643Z,22.70
2022-12-11T23:05:13.857Z,23.30
2022-12-11T23:07:40.867Z,23.60
2022-12-11T23:10:08.844Z,22.63
2022-12-11T23:12:36.268Z,23.97
2022-12-11T23:15:02.794Z,23.40
2022-12-11T23:17:29.293Z,21.63
2022-12-11T23:19:55.794Z,22.90
2022-12-11T23:22:22.215Z,22.90
2022-12-11T23:24:48.641Z,21.50
2022-12-11T23:27:15.327Z,22.30
2022-12-11T23:29:41.974Z,23.33
2022-12-11T23:32:08.381Z,23.13
2022-12-11T23:34:34.774Z,22.63
2022-12-11T23:37:01.236Z,23.40
2022-12-11T23:39:27.711Z,20.73
2022-12-11T23:41:54.186Z,21.33
2022-12-11T23:44:20.664Z,22.40
2022-12-11T23:46:47.109Z,22.77
2022-12-11T23:49:13.547Z,21.73
2022-12-11T23:51:40.222Z,22.13
2022-12-11T23:54:06.692Z,21.57
2022-12-11T23:56:33.300Z,22.33
2022-12-11T23:58:59.747Z,23.83
